Ashton, Maryland
Current Conditions -  °F | °C
As of 2:55 PM on Sunday 23 Nov 2014 (Local Time) from KGAI Reporting Station
Clear Clear  
Wind Chill: 11°   Ceiling: Unl
Heat Index: 11°   Visibility: 10mi
Dew Point: -3°   Wind: 5mph
Humidity: 38%   Direction: 160°SSE
Pressure: 30.14"   Gusts: NA
Location:  39.15°N, 77.01°W
Report Text: KGAI 231955Z 16004KT 10SM CLR 11/M03 A3014 RMK AO1
Loading
Personal Weather Stations






























Interactive Weather Map New forecast layout! Learn more

10-Day Weather Forecast

Advertisements
Track Severe Weather on mobile